CheckWX is a tool to help pilots better visualize weather data.  It is not intended as a substitute for an official pre-flight weather briefing.

13:42:38 UTC

KMGR METAR
Moultrie Municipal Airport
Moultrie, Georgia, USA
Current

28 mins ago

KMGR 201315Z AUTO 00000KT 10SM CLR 25/21 A3013 RMK AO2
Observed
Jul-20 @ 13:15 UTC
Visibility
10 SM
Flight Rules
VFR
Cloud Levels
  • Clear skies
Temperature
25°C / 77°F
Dewpoint
21°C / 70°F
Humidity
79%
Altimeter
30.13" Hg
Pressure
1020.32 hPa
Previous

48 mins ago

KMGR 201255Z AUTO 00000KT 10SM CLR 24/22 A3014 RMK AO2
Observed
Jul-20 @ 12:55 UTC
Visibility
10 SM
Flight Rules
VFR
Cloud Levels
  • Clear skies
Temperature
24°C / 75°F
Dewpoint
22°C / 72°F
Humidity
89%
Altimeter
30.14" Hg
Pressure
1020.62 hPa
Previous

1 hour ago

KMGR 201235Z AUTO 00000KT 10SM CLR 23/22 A3013 RMK AO2
Observed
Jul-20 @ 12:35 UTC
Visibility
10 SM
Flight Rules
VFR
Cloud Levels
  • Clear skies
Temperature
23°C / 73°F
Dewpoint
22°C / 72°F
Humidity
94%
Altimeter
30.13" Hg
Pressure
1020.32 hPa